Terminal Aerodrome Forecast
Issued by NWS Newport/Morehead City, NC

Home | Current Version | Previous Version | Graphics & Text | Print | Product List | Glossary On
Versions: 1 2 3 4 5 6 7 8 9 10 11 12
000
FTUS42 KMHX 132332
TAFEWN
TAF
KEWN 132332Z 1400/1424 VRB06KT P6SM SKC
     FM140400 21010G18KT P6SM FEW150 WS020/22040KT
     FM141500 27010G17KT P6SM SKC
     FM142000 29007KT P6SM SKC=

USA.gov is the U.S. government's official web portal to all federal, state and local government web resources and services.